createdAt,value
2022-08-17T06:39:40.061Z,126.73
2022-08-17T06:43:04.879Z,125.07
2022-08-17T06:45:13.087Z,124.10
2022-08-17T06:54:38.409Z,129.20
2022-08-17T06:57:14.579Z,123.07
2022-08-17T06:59:54.972Z,126.13
2022-08-17T07:02:51.538Z,123.93
2022-08-17T07:05:23.395Z,120.60
2022-08-17T07:13:29.398Z,125.17
2022-08-17T07:16:08.672Z,119.07
2022-08-17T07:18:37.412Z,123.17
2022-08-17T07:21:22.878Z,136.33
2022-08-17T07:24:04.434Z,137.60
2022-08-17T07:47:21.612Z,150.87
2022-08-17T07:49:49.609Z,141.27
2022-08-17T07:52:51.496Z,145.47
2022-08-17T07:55:31.362Z,146.23
2022-08-17T07:58:00.569Z,135.80
2022-08-17T08:00:32.778Z,147.97
2022-08-17T08:03:16.028Z,144.23
2022-08-17T08:05:53.263Z,147.90
2022-08-17T08:08:29.146Z,151.10
2022-08-17T08:11:04.092Z,139.20
2022-08-17T08:13:33.298Z,131.60
2022-08-17T08:16:20.937Z,133.57
2022-08-17T08:18:54.664Z,138.40
2022-08-17T08:21:36.437Z,132.97
2022-08-17T08:24:26.390Z,127.90
2022-08-17T08:27:07.921Z,126.60
2022-08-17T08:29:45.942Z,124.50
2022-08-17T08:32:20.505Z,119.67
2022-08-17T08:35:02.006Z,120.60
2022-08-17T08:37:42.924Z,109.30
2022-08-17T08:40:24.098Z,111.13
2022-08-17T08:43:00.326Z,111.33
2022-08-17T08:45:39.545Z,108.23
2022-08-17T08:48:52.910Z,104.10
2022-08-17T08:51:19.798Z,111.93
2022-08-17T08:53:56.144Z,107.37
2022-08-17T08:56:32.227Z,94.63
2022-08-17T08:59:08.688Z,102.07
2022-08-17T09:01:46.943Z,99.07
2022-08-17T09:05:02.662Z,90.60
2022-08-17T09:07:36.514Z,82.33
2022-08-17T09:10:19.573Z,80.30
2022-08-17T09:12:54.338Z,74.80
2022-08-17T09:15:27.666Z,82.43
2022-08-17T09:18:30.397Z,88.10
2022-08-17T09:20:54.446Z,85.73
2022-08-17T09:23:33.551Z,69.97
2022-08-17T09:26:09.870Z,76.27
2022-08-17T09:28:40.158Z,75.53
2022-08-17T09:31:10.839Z,87.70
2022-08-17T09:33:45.600Z,79.20
2022-08-17T09:36:18.844Z,81.23
2022-08-17T09:38:58.385Z,82.27
2022-08-17T09:41:36.855Z,73.87
2022-08-17T09:44:23.151Z,75.40
2022-08-17T09:46:55.382Z,68.77
2022-08-17T09:49:31.577Z,64.47
2022-08-17T09:52:06.717Z,66.00
2022-08-17T09:54:40.214Z,71.53
2022-08-17T09:57:31.849Z,64.93
2022-08-17T10:00:20.149Z,64.63
2022-08-17T10:03:09.854Z,61.77
2022-08-17T10:05:46.465Z,64.70
2022-08-17T10:08:27.847Z,64.33
2022-08-17T10:11:12.732Z,64.50
2022-08-17T10:13:52.880Z,61.27
2022-08-17T10:16:28.572Z,76.93
2022-08-17T10:19:13.788Z,68.00
2022-08-17T10:22:32.538Z,67.37
2022-08-17T10:25:22.778Z,63.93
2022-08-17T10:27:57.685Z,61.30
2022-08-17T10:30:30.422Z,58.93
2022-08-17T10:33:02.072Z,58.03
2022-08-17T10:35:40.073Z,59.77
2022-08-17T10:38:28.797Z,60.80
2022-08-17T10:41:03.913Z,67.50
2022-08-17T10:44:37.312Z,67.17
2022-08-17T10:47:02.335Z,62.73
2022-08-17T10:49:34.013Z,61.10
2022-08-17T10:52:05.751Z,56.93
2022-08-17T10:54:46.905Z,49.73
2022-08-17T10:57:41.553Z,47.60
2022-08-17T11:00:29.312Z,44.90
2022-08-17T11:02:58.364Z,50.37
2022-08-17T11:05:44.436Z,43.73
2022-08-17T11:08:39.551Z,43.07
2022-08-17T11:11:34.645Z,44.07
2022-08-17T11:14:17.041Z,40.77
2022-08-17T11:17:01.971Z,42.63
2022-08-17T11:20:05.642Z,42.63
2022-08-17T11:23:16.109Z,42.57
2022-08-17T11:25:49.501Z,44.63
2022-08-17T11:28:20.325Z,42.30
2022-08-17T11:30:51.728Z,41.23
2022-08-17T11:33:55.756Z,39.37
2022-08-17T11:36:47.093Z,47.30
2022-08-17T11:39:54.894Z,42.00
2022-08-17T11:42:38.587Z,34.30
2022-08-17T11:45:34.054Z,34.83
2022-08-17T11:48:28.401Z,32.67
2022-08-17T11:51:24.015Z,31.83
2022-08-17T11:57:00.425Z,37.23
2022-08-17T11:59:58.735Z,38.60
2022-08-17T12:02:38.884Z,28.90
2022-08-17T12:05:35.318Z,31.07
2022-08-17T12:08:17.773Z,31.63
2022-08-17T12:11:00.247Z,29.07
2022-08-17T12:13:38.431Z,25.23
2022-08-17T12:16:23.656Z,26.03
2022-08-17T12:18:54.332Z,25.67
2022-08-17T12:21:30.961Z,23.77
2022-08-17T12:24:10.228Z,25.37
2022-08-17T12:26:38.547Z,26.83
2022-08-17T12:29:18.469Z,27.90
2022-08-17T12:32:06.878Z,25.43
2022-08-17T12:34:39.360Z,24.53
2022-08-17T12:37:18.685Z,23.70
2022-08-17T12:39:56.037Z,25.77
2022-08-17T12:42:29.273Z,28.77
2022-08-17T12:44:57.889Z,28.57
2022-08-17T12:47:26.497Z,30.10
2022-08-17T12:50:29.891Z,31.37
2022-08-17T12:53:01.669Z,29.87
2022-08-17T12:55:39.027Z,30.53
2022-08-17T12:58:14.353Z,32.00
2022-08-17T13:00:49.746Z,33.60
2022-08-17T13:03:20.168Z,32.80
2022-08-17T13:05:58.634Z,31.13
2022-08-17T13:08:31.934Z,28.10
2022-08-17T13:11:04.059Z,31.97
2022-08-17T13:13:34.900Z,27.77
2022-08-17T13:16:05.731Z,26.90
2022-08-17T13:18:45.018Z,23.17
2022-08-17T13:21:22.128Z,22.57
2022-08-17T13:23:58.991Z,23.53
2022-08-17T13:26:32.600Z,24.10
2022-08-17T13:29:01.293Z,27.03
2022-08-17T13:31:52.413Z,27.17
2022-08-17T13:34:48.977Z,30.73
2022-08-17T13:37:30.295Z,34.40
2022-08-17T13:40:02.325Z,32.50
2022-08-17T13:42:34.992Z,31.20
2022-08-17T13:45:53.973Z,32.73
2022-08-17T13:48:28.224Z,34.40
2022-08-17T13:51:15.085Z,33.13
2022-08-17T13:53:57.739Z,30.03
2022-08-17T13:56:36.956Z,29.47
2022-08-17T13:59:12.473Z,29.90
2022-08-17T14:01:43.061Z,29.33
2022-08-17T14:04:14.852Z,22.63
2022-08-17T14:06:54.219Z,22.73
2022-08-17T14:09:25.530Z,24.17
2022-08-17T14:11:55.177Z,22.02
2022-08-17T14:14:25.483Z,20.17
2022-08-17T14:16:54.360Z,20.45
2022-08-17T14:19:22.899Z,21.60
2022-08-17T14:21:52.167Z,21.58
2022-08-17T14:24:27.224Z,25.58
2022-08-17T14:26:55.886Z,27.67
2022-08-17T14:29:27.802Z,25.60
2022-08-17T14:31:57.388Z,22.70
2022-08-17T14:34:27.146Z,22.07
2022-08-17T14:36:56.491Z,24.13
2022-08-17T14:39:24.571Z,22.13
2022-08-17T14:41:53.017Z,23.88
2022-08-17T14:44:21.027Z,25.20
2022-08-17T14:46:50.539Z,23.80
2022-08-17T14:49:29.022Z,24.88
2022-08-17T14:51:57.113Z,25.92
2022-08-17T14:54:32.903Z,26.23
2022-08-17T14:57:26.232Z,26.40
2022-08-17T14:59:54.832Z,27.00
2022-08-17T15:02:30.091Z,25.88
2022-08-17T15:05:03.451Z,25.17
2022-08-17T15:07:31.844Z,24.50
2022-08-17T15:10:01.597Z,23.58
2022-08-17T15:12:33.684Z,22.73
2022-08-17T15:15:04.370Z,24.42
2022-08-17T15:17:43.894Z,20.67
2022-08-17T15:20:15.751Z,19.98
2022-08-17T15:22:45.393Z,20.92
2022-08-17T15:25:14.308Z,20.45
2022-08-17T15:27:42.523Z,19.27
2022-08-17T15:30:11.875Z,20.08
2022-08-17T15:32:50.715Z,21.10
2022-08-17T15:35:27.986Z,21.33
2022-08-17T15:37:58.280Z,22.20
2022-08-17T15:40:26.725Z,22.73
2022-08-17T15:42:54.893Z,22.70
2022-08-17T15:45:28.276Z,23.27
2022-08-17T15:47:57.829Z,23.73
2022-08-17T15:50:26.517Z,22.55
2022-08-17T15:52:59.246Z,23.50
2022-08-17T15:55:28.968Z,22.92
2022-08-17T15:57:57.281Z,23.63
2022-08-17T16:00:28.517Z,22.17
2022-08-17T16:03:45.129Z,20.58
2022-08-17T16:05:50.209Z,21.50
2022-08-17T16:08:21.345Z,23.65
2022-08-17T16:10:50.042Z,21.75
2022-08-17T16:13:19.096Z,22.52
2022-08-17T16:15:57.169Z,20.02
2022-08-17T16:18:31.077Z,18.42
2022-08-17T16:21:21.560Z,19.77
2022-08-17T16:23:51.530Z,20.38
2022-08-17T16:26:19.799Z,25.17
2022-08-17T16:28:47.984Z,27.05
2022-08-17T16:31:16.605Z,26.00
2022-08-17T16:34:15.599Z,25.77
2022-08-17T16:36:38.603Z,26.70
2022-08-17T16:39:09.555Z,25.53
2022-08-17T16:41:46.704Z,26.77
2022-08-17T16:44:17.054Z,26.65
2022-08-17T16:46:46.243Z,25.30
2022-08-17T16:49:36.200Z,26.55
2022-08-17T16:52:06.962Z,26.98
2022-08-17T16:54:35.643Z,26.80
2022-08-17T16:57:05.089Z,26.73
2022-08-17T16:59:40.720Z,25.47
2022-08-17T17:02:14.778Z,27.03
2022-08-17T17:04:50.759Z,27.87
2022-08-17T17:07:34.852Z,29.03
2022-08-17T17:10:07.933Z,25.77
2022-08-17T17:13:01.547Z,25.27
2022-08-17T17:15:34.525Z,24.73
2022-08-17T17:18:07.148Z,24.80
2022-08-17T17:20:45.871Z,23.30
2022-08-17T17:23:29.198Z,25.10
2022-08-17T17:26:04.047Z,24.87
2022-08-17T17:28:43.513Z,26.30
2022-08-17T17:31:16.846Z,26.30
2022-08-17T17:33:48.517Z,27.17
2022-08-17T17:36:26.620Z,27.90
2022-08-17T17:39:00.045Z,28.57
2022-08-17T17:41:33.522Z,31.30
2022-08-17T17:44:06.076Z,31.50
2022-08-17T17:46:39.361Z,32.43
2022-08-17T17:49:10.190Z,33.60
2022-08-17T17:52:06.662Z,32.93
2022-08-17T17:54:45.738Z,35.67
2022-08-17T17:57:24.655Z,34.60
2022-08-17T17:59:59.518Z,35.70
2022-08-17T18:02:52.603Z,35.83
2022-08-17T18:05:40.379Z,37.10
2022-08-17T18:08:32.273Z,36.37
2022-08-17T18:11:09.320Z,37.03
2022-08-17T18:13:52.083Z,36.23
2022-08-17T18:16:20.278Z,36.60
2022-08-17T18:18:50.133Z,37.90
2022-08-17T18:21:21.341Z,40.77
2022-08-17T18:23:55.610Z,41.20
2022-08-17T18:26:44.638Z,40.83
2022-08-17T18:29:39.113Z,44.93
2022-08-17T18:32:18.250Z,45.23
2022-08-17T18:34:48.962Z,46.87
2022-08-17T18:37:35.320Z,47.70
2022-08-17T18:40:27.612Z,47.50
2022-08-17T18:43:05.435Z,47.90
2022-08-17T18:45:38.265Z,46.77
2022-08-17T18:48:17.737Z,48.23
2022-08-17T18:50:45.989Z,49.27
2022-08-17T18:53:33.288Z,46.47
2022-08-17T18:56:26.844Z,46.90
2022-08-17T18:59:18.211Z,45.23
2022-08-17T19:02:10.059Z,42.43
2022-08-17T19:04:44.170Z,39.17
2022-08-17T19:07:26.648Z,41.20
2022-08-17T19:09:59.408Z,39.27
2022-08-17T19:12:33.916Z,39.10
2022-08-17T19:15:02.215Z,32.57
2022-08-17T19:17:37.754Z,32.57
2022-08-17T19:20:14.940Z,33.43
2022-08-17T19:22:52.902Z,32.23
2022-08-17T19:25:27.130Z,31.20
2022-08-17T19:28:03.730Z,31.53
2022-08-17T19:30:32.764Z,29.43
2022-08-17T19:33:03.154Z,26.70
2022-08-17T19:35:43.507Z,26.60
2022-08-17T19:38:25.002Z,25.73
2022-08-17T19:41:03.757Z,23.63
2022-08-17T19:44:05.993Z,27.27
2022-08-17T19:46:58.687Z,23.07
2022-08-17T19:49:41.216Z,23.43
2022-08-17T19:52:25.663Z,22.73
2022-08-17T19:54:59.445Z,22.83
2022-08-17T19:57:43.352Z,21.60
2022-08-17T20:00:15.987Z,20.40
2022-08-17T20:02:55.473Z,19.47
2022-08-17T20:05:48.733Z,19.60
2022-08-17T20:08:26.752Z,19.63
2022-08-17T20:10:57.393Z,20.77
2022-08-17T20:13:33.672Z,20.33
2022-08-17T20:16:04.404Z,19.57
2022-08-17T20:18:37.771Z,20.77
2022-08-17T20:21:19.996Z,20.50
2022-08-17T20:23:54.331Z,20.47
2022-08-17T20:26:27.309Z,21.47
2022-08-17T20:29:29.567Z,19.53
2022-08-17T20:32:18.446Z,20.97
2022-08-17T20:34:48.300Z,26.10
2022-08-17T20:37:32.648Z,22.70
2022-08-17T20:40:21.767Z,22.67
2022-08-17T20:42:49.884Z,22.93
2022-08-17T20:45:50.343Z,22.73
2022-08-17T20:48:37.471Z,24.47
2022-08-17T20:51:34.728Z,25.97
2022-08-17T20:54:22.456Z,28.57
2022-08-17T20:56:56.242Z,26.17
2022-08-17T21:00:13.908Z,26.77
2022-08-17T21:02:44.516Z,26.33
2022-08-17T21:05:34.300Z,30.50
2022-08-17T21:08:16.999Z,27.00
2022-08-17T21:10:47.774Z,30.07
2022-08-17T21:13:33.023Z,28.83
2022-08-17T21:16:08.763Z,28.93
2022-08-17T21:18:42.431Z,29.90
2022-08-17T21:21:32.436Z,31.27
2022-08-17T21:24:19.426Z,32.17
2022-08-17T21:27:00.188Z,30.50
2022-08-17T21:29:33.809Z,31.80
2022-08-17T21:32:28.302Z,31.47
2022-08-17T21:35:23.582Z,32.60
2022-08-17T21:37:58.298Z,34.30
2022-08-17T21:40:29.022Z,35.47
2022-08-17T21:43:00.699Z,34.80
2022-08-17T21:45:35.032Z,33.97
2022-08-17T21:48:15.729Z,38.80
2022-08-17T21:50:47.486Z,33.83
2022-08-17T21:53:32.246Z,32.07
2022-08-17T21:56:01.343Z,34.50
